createdAt,value
2023-03-22T00:00:00.231Z,100.00
2023-03-22T00:02:27.265Z,100.00
2023-03-22T00:04:54.078Z,100.00
2023-03-22T00:07:21.128Z,100.00
2023-03-22T00:09:47.839Z,100.00
2023-03-22T00:12:14.605Z,100.00
2023-03-22T00:14:41.646Z,100.00
2023-03-22T00:17:08.352Z,100.00
2023-03-22T00:19:35.126Z,100.00
2023-03-22T00:22:03.731Z,100.00
2023-03-22T00:24:30.671Z,100.00
2023-03-22T00:26:58.871Z,100.00
2023-03-22T00:29:25.692Z,100.00
2023-03-22T00:31:54.515Z,100.00
2023-03-22T00:34:21.268Z,100.00
2023-03-22T00:36:48.634Z,100.00
2023-03-22T00:39:15.901Z,100.00
2023-03-22T00:41:42.600Z,100.00
2023-03-22T00:44:09.326Z,100.00
2023-03-22T00:46:37.601Z,100.00
2023-03-22T00:51:31.189Z,100.00
2023-03-22T00:53:57.914Z,100.00
2023-03-22T00:56:25.778Z,100.00
2023-03-22T00:58:52.530Z,100.00
2023-03-22T01:01:19.252Z,100.00
2023-03-22T01:03:50.003Z,100.00
2023-03-22T01:06:16.934Z,100.00
2023-03-22T01:08:43.656Z,100.00
2023-03-22T01:11:10.426Z,100.00
2023-03-22T01:13:38.025Z,100.00
2023-03-22T01:16:06.788Z,100.00
2023-03-22T01:18:34.344Z,100.00
2023-03-22T01:21:01.309Z,100.00
2023-03-22T01:23:28.430Z,100.00
2023-03-22T01:25:55.210Z,100.00
2023-03-22T01:28:22.108Z,100.00
2023-03-22T01:30:49.192Z,100.00
2023-03-22T01:33:16.267Z,100.00
2023-03-22T01:35:43.285Z,100.00
2023-03-22T01:38:10.157Z,100.00
2023-03-22T01:40:37.046Z,100.00
2023-03-22T01:43:04.118Z,100.00
2023-03-22T01:45:36.065Z,100.00
2023-03-22T01:48:06.599Z,100.00
2023-03-22T01:50:33.707Z,100.00
2023-03-22T01:55:33.520Z,100.00
2023-03-22T01:58:02.109Z,100.00
2023-03-22T02:00:29.319Z,100.00
2023-03-22T02:02:56.309Z,100.00
2023-03-22T02:05:23.252Z,100.00
2023-03-22T02:07:51.035Z,100.00
2023-03-22T02:10:22.500Z,100.00
2023-03-22T02:13:07.251Z,100.00
2023-03-22T02:15:43.653Z,100.00
2023-03-22T02:18:47.764Z,100.00
2023-03-22T02:21:26.953Z,100.00
2023-03-22T02:24:06.893Z,100.00
2023-03-22T02:26:41.713Z,100.00
2023-03-22T02:29:16.065Z,100.00
2023-03-22T02:31:56.346Z,100.00
2023-03-22T02:34:36.059Z,100.00
2023-03-22T02:37:05.601Z,100.00
2023-03-22T02:39:45.282Z,100.00
2023-03-22T02:42:29.747Z,100.00
2023-03-22T02:47:40.623Z,100.00
2023-03-22T02:50:10.565Z,100.00
2023-03-22T02:52:46.789Z,100.00
2023-03-22T02:55:36.154Z,100.00
2023-03-22T02:58:06.650Z,100.00
2023-03-22T03:00:34.982Z,100.00
2023-03-22T03:03:11.509Z,100.00
2023-03-22T03:05:45.049Z,100.00
2023-03-22T03:08:13.705Z,100.00
2023-03-22T03:10:42.166Z,100.00
2023-03-22T03:13:13.891Z,100.00
2023-03-22T03:15:45.507Z,100.00
2023-03-22T03:18:15.362Z,100.00
2023-03-22T03:20:54.800Z,100.00
2023-03-22T03:23:32.276Z,100.00
2023-03-22T03:26:05.731Z,100.00
2023-03-22T03:28:39.227Z,100.00
2023-03-22T03:31:14.156Z,100.00
2023-03-22T03:34:06.707Z,100.00
2023-03-22T03:36:38.060Z,100.00
2023-03-22T03:39:06.672Z,100.00
2023-03-22T03:41:34.198Z,100.00
2023-03-22T03:44:01.796Z,100.00
2023-03-22T03:46:29.490Z,100.00
2023-03-22T03:48:58.643Z,100.00
2023-03-22T03:51:28.119Z,100.00
2023-03-22T03:53:54.773Z,100.00
2023-03-22T03:56:21.603Z,100.00
2023-03-22T03:58:48.361Z,100.00
2023-03-22T04:01:15.059Z,100.00
2023-03-22T04:03:41.746Z,100.00
2023-03-22T04:06:09.215Z,100.00
2023-03-22T04:08:36.296Z,100.00
2023-03-22T04:11:02.976Z,100.00
2023-03-22T04:13:30.046Z,100.00
2023-03-22T04:15:58.260Z,100.00
2023-03-22T04:18:25.092Z,100.00
2023-03-22T04:20:53.744Z,100.00
2023-03-22T04:23:22.879Z,100.00
2023-03-22T04:25:50.710Z,100.00
2023-03-22T04:28:19.995Z,100.00
2023-03-22T04:30:52.033Z,100.00
2023-03-22T04:33:20.254Z,100.00
2023-03-22T04:35:47.030Z,100.00
2023-03-22T04:38:14.252Z,100.00
2023-03-22T04:40:47.066Z,100.00
2023-03-22T04:43:15.814Z,100.00
2023-03-22T04:45:44.086Z,100.00
2023-03-22T04:48:11.443Z,100.00
2023-03-22T04:50:40.613Z,100.00
2023-03-22T04:53:08.311Z,100.00
2023-03-22T04:55:35.133Z,100.00
2023-03-22T04:58:01.956Z,100.00
2023-03-22T05:00:30.612Z,100.00
2023-03-22T05:02:58.914Z,100.00
2023-03-22T05:05:25.880Z,100.00
2023-03-22T05:07:52.817Z,100.00
2023-03-22T05:10:19.699Z,100.00
2023-03-22T05:12:46.420Z,100.00
2023-03-22T05:15:14.027Z,100.00
2023-03-22T05:17:40.819Z,100.00
2023-03-22T05:20:10.266Z,100.00
2023-03-22T05:22:41.289Z,100.00
2023-03-22T05:25:10.787Z,100.00
2023-03-22T05:27:39.222Z,100.00
2023-03-22T05:32:31.103Z,100.00
2023-03-22T05:34:57.899Z,100.00
2023-03-22T05:37:25.558Z,100.00
2023-03-22T05:39:52.382Z,100.00
2023-03-22T05:42:19.108Z,100.00
2023-03-22T05:44:45.860Z,100.00
2023-03-22T05:47:12.640Z,100.00
2023-03-22T05:49:39.392Z,100.00
2023-03-22T05:52:06.270Z,100.00
2023-03-22T05:54:33.102Z,100.00
2023-03-22T05:56:59.821Z,100.00
2023-03-22T05:59:26.777Z,100.00
2023-03-22T06:01:53.585Z,100.00
2023-03-22T06:04:21.372Z,100.00
2023-03-22T06:06:48.116Z,100.00
2023-03-22T06:09:17.626Z,100.00
2023-03-22T06:11:44.805Z,100.00
2023-03-22T06:14:11.840Z,100.00
2023-03-22T06:16:38.580Z,100.00
2023-03-22T06:21:31.298Z,100.00
2023-03-22T06:23:57.919Z,100.00
2023-03-22T06:26:24.604Z,100.00
2023-03-22T06:28:51.638Z,100.00
2023-03-22T06:31:18.442Z,100.00
2023-03-22T06:33:45.709Z,100.00
2023-03-22T06:36:12.425Z,100.00
2023-03-22T06:38:39.109Z,100.00
2023-03-22T06:41:05.841Z,99.93
2023-03-22T06:43:32.556Z,98.33
2023-03-22T06:45:59.391Z,98.71
2023-03-22T06:48:26.223Z,98.97
2023-03-22T06:50:52.947Z,96.98
2023-03-22T06:53:19.612Z,96.69
2023-03-22T06:55:46.762Z,96.99
2023-03-22T06:58:13.606Z,95.00
2023-03-22T07:00:40.480Z,95.64
2023-03-22T07:03:07.495Z,95.51
2023-03-22T07:05:34.161Z,96.91
2023-03-22T07:08:00.936Z,94.59
2023-03-22T07:10:27.708Z,93.63
2023-03-22T07:12:54.934Z,90.59
2023-03-22T07:15:24.852Z,88.39
2023-03-22T07:17:52.910Z,87.95
2023-03-22T07:20:20.105Z,85.43
2023-03-22T07:22:46.799Z,85.50
2023-03-22T07:25:13.948Z,84.28
2023-03-22T07:27:41.024Z,82.62
2023-03-22T07:30:09.801Z,81.38
2023-03-22T07:32:36.667Z,78.17
2023-03-22T07:35:03.702Z,77.02
2023-03-22T07:37:30.602Z,74.85
2023-03-22T07:39:57.277Z,73.81
2023-03-22T07:42:24.001Z,71.31
2023-03-22T07:44:50.807Z,72.21
2023-03-22T07:47:27.110Z,71.22
2023-03-22T07:50:00.862Z,70.67
2023-03-22T07:52:27.556Z,70.89
2023-03-22T07:54:54.204Z,69.84
2023-03-22T07:57:20.914Z,69.43
2023-03-22T07:59:47.568Z,69.34
2023-03-22T08:02:14.603Z,69.84
2023-03-22T08:04:41.377Z,68.50
2023-03-22T08:07:10.384Z,68.19
2023-03-22T08:09:37.922Z,68.36
2023-03-22T08:14:36.591Z,67.87
2023-03-22T08:17:05.826Z,67.69
2023-03-22T08:19:34.344Z,67.98
2023-03-22T08:22:01.514Z,67.10
2023-03-22T08:24:28.168Z,66.09
2023-03-22T08:26:54.951Z,65.63
2023-03-22T08:29:23.405Z,65.82
2023-03-22T08:31:51.291Z,65.47
2023-03-22T08:34:18.069Z,64.76
2023-03-22T08:36:44.895Z,63.24
2023-03-22T08:39:11.651Z,62.81
2023-03-22T08:41:39.897Z,63.28
2023-03-22T08:44:07.105Z,60.91
2023-03-22T08:46:33.870Z,60.54
2023-03-22T08:49:02.410Z,58.62
2023-03-22T08:51:29.174Z,58.23
2023-03-22T08:53:58.941Z,57.62
2023-03-22T08:56:27.495Z,57.51
2023-03-22T08:58:54.192Z,57.49
2023-03-22T09:01:21.866Z,56.47
2023-03-22T09:03:48.732Z,55.64
2023-03-22T09:06:15.663Z,55.23
2023-03-22T09:08:42.511Z,55.69
2023-03-22T09:11:09.911Z,57.37
2023-03-22T09:13:36.646Z,56.38
2023-03-22T09:16:04.372Z,57.21
2023-03-22T09:18:31.235Z,58.16
2023-03-22T09:20:58.460Z,59.28
2023-03-22T09:23:25.184Z,59.60
2023-03-22T09:25:51.988Z,59.91
2023-03-22T09:28:19.357Z,56.81
2023-03-22T09:30:46.273Z,55.94
2023-03-22T09:33:13.368Z,54.03
2023-03-22T09:35:42.889Z,55.40
2023-03-22T09:38:10.391Z,57.33
2023-03-22T09:40:43.880Z,56.52
2023-03-22T09:43:13.383Z,56.76
2023-03-22T09:45:43.921Z,56.89
2023-03-22T09:48:27.703Z,59.49
2023-03-22T09:50:55.738Z,57.89
2023-03-22T09:53:26.963Z,56.07
2023-03-22T09:56:06.810Z,55.37
2023-03-22T09:58:40.949Z,55.93
2023-03-22T10:01:29.272Z,51.99
2023-03-22T10:03:59.259Z,53.96
2023-03-22T10:06:31.148Z,54.52
2023-03-22T10:09:06.831Z,55.93
2023-03-22T10:11:46.775Z,56.11
2023-03-22T10:14:26.263Z,53.42
2023-03-22T10:16:56.605Z,52.01
2023-03-22T10:19:29.785Z,50.89
2023-03-22T10:22:01.791Z,52.37
2023-03-22T10:24:35.803Z,50.27
2023-03-22T10:27:02.866Z,50.56
2023-03-22T10:29:41.684Z,50.06
2023-03-22T10:32:20.102Z,51.09
2023-03-22T10:34:47.491Z,50.89
2023-03-22T10:37:23.493Z,53.01
2023-03-22T10:39:54.178Z,52.83
2023-03-22T10:42:23.757Z,52.63
2023-03-22T10:45:00.795Z,52.06
2023-03-22T10:47:43.128Z,52.03
2023-03-22T10:50:28.999Z,50.54
2023-03-22T10:55:31.300Z,50.80
2023-03-22T10:58:06.814Z,48.79
2023-03-22T11:00:33.474Z,46.42
2023-03-22T11:03:01.926Z,48.71
2023-03-22T11:05:30.397Z,50.20
2023-03-22T11:07:58.857Z,49.22
2023-03-22T11:10:33.703Z,48.68
2023-03-22T11:13:05.999Z,50.70
2023-03-22T11:15:35.415Z,46.88
2023-03-22T11:18:06.829Z,45.59
2023-03-22T11:20:35.039Z,45.97
2023-03-22T11:25:35.575Z,45.87
2023-03-22T11:30:34.128Z,45.82
2023-03-22T11:33:06.889Z,45.89
2023-03-22T11:35:36.930Z,43.26
2023-03-22T11:40:36.842Z,44.81
2023-03-22T11:43:06.896Z,44.49
2023-03-22T11:45:38.097Z,43.42
2023-03-22T11:48:07.015Z,43.01
2023-03-22T11:50:38.220Z,42.10
2023-03-22T11:53:06.938Z,41.97
2023-03-22T11:55:36.770Z,40.63
2023-03-22T12:00:37.396Z,39.75
2023-03-22T12:03:06.127Z,39.45
2023-03-22T12:05:37.320Z,40.43
2023-03-22T12:08:06.982Z,41.37
2023-03-22T12:10:40.534Z,42.44
2023-03-22T12:13:21.346Z,41.15
2023-03-22T12:15:56.718Z,40.17
2023-03-22T12:18:34.562Z,41.10
2023-03-22T12:21:02.090Z,41.42
2023-03-22T12:23:32.329Z,39.66
2023-03-22T12:26:07.038Z,38.87
2023-03-22T12:29:03.889Z,40.13
2023-03-22T12:31:45.980Z,37.26
2023-03-22T12:34:18.966Z,38.54
2023-03-22T12:36:51.248Z,38.59
2023-03-22T12:39:32.670Z,39.13
2023-03-22T12:42:07.026Z,37.89
2023-03-22T12:44:39.428Z,37.69
2023-03-22T12:47:07.199Z,36.87
2023-03-22T12:49:40.733Z,36.96
2023-03-22T12:52:37.640Z,36.28
2023-03-22T12:55:21.758Z,36.04
2023-03-22T12:57:52.643Z,35.81
2023-03-22T13:00:34.123Z,37.21
2023-03-22T13:03:10.381Z,39.22
2023-03-22T13:05:37.855Z,39.98
2023-03-22T13:10:31.467Z,39.50
2023-03-22T13:13:07.097Z,40.27
2023-03-22T13:15:42.158Z,39.75
2023-03-22T13:18:45.449Z,41.45
2023-03-22T13:21:34.943Z,40.16
2023-03-22T13:24:07.702Z,40.81
2023-03-22T13:26:39.812Z,41.33
2023-03-22T13:29:22.395Z,39.82
2023-03-22T13:31:52.067Z,37.26
2023-03-22T13:34:21.757Z,35.93
2023-03-22T13:36:58.372Z,36.17
2023-03-22T13:39:27.536Z,35.01
2023-03-22T13:42:07.186Z,36.45
2023-03-22T13:44:40.279Z,37.63
2023-03-22T13:47:30.792Z,36.29
2023-03-22T13:50:07.451Z,37.14
2023-03-22T13:52:38.817Z,37.41
2023-03-22T13:55:06.025Z,37.80
2023-03-22T13:57:58.482Z,38.44
2023-03-22T14:00:33.947Z,38.63
2023-03-22T14:03:07.594Z,39.13
2023-03-22T14:05:37.780Z,39.14
2023-03-22T14:10:31.803Z,39.64
2023-03-22T14:15:45.199Z,39.81
2023-03-22T14:18:26.988Z,39.85
2023-03-22T14:20:58.370Z,40.92
2023-03-22T14:53:39.030Z,37.35
2023-03-22T14:56:06.141Z,37.66
2023-03-22T14:58:36.128Z,36.95
2023-03-22T15:01:08.463Z,35.52
2023-03-22T15:03:35.363Z,34.79
2023-03-22T15:06:03.295Z,34.14
2023-03-22T15:08:33.012Z,36.71
2023-03-22T15:11:03.348Z,37.94
2023-03-22T15:13:31.439Z,34.24
2023-03-22T15:15:58.801Z,34.00
2023-03-22T15:18:31.148Z,35.38
2023-03-22T15:21:00.311Z,36.98
2023-03-22T15:23:32.097Z,37.49
2023-03-22T15:26:01.082Z,38.57
2023-03-22T15:28:31.410Z,38.27
2023-03-22T15:31:04.149Z,38.84
2023-03-22T15:33:42.269Z,38.90
2023-03-22T15:36:17.978Z,37.42
2023-03-22T15:38:46.978Z,36.29
2023-03-22T15:41:44.885Z,37.63
2023-03-22T15:44:27.776Z,36.14
2023-03-22T15:47:07.132Z,34.78
2023-03-22T15:49:36.263Z,36.45
2023-03-22T15:52:06.155Z,37.44
2023-03-22T15:54:34.356Z,36.86
2023-03-22T15:57:06.183Z,35.47
2023-03-22T15:59:32.982Z,34.86
2023-03-22T16:02:01.997Z,35.74
2023-03-22T16:04:34.667Z,33.74
2023-03-22T16:07:02.133Z,33.34
2023-03-22T16:09:29.027Z,33.89
2023-03-22T16:11:55.788Z,34.49
2023-03-22T16:14:22.676Z,33.78
2023-03-22T16:16:49.642Z,34.73
2023-03-22T16:19:16.476Z,34.91
2023-03-22T16:21:43.418Z,35.94
2023-03-22T16:24:12.313Z,37.63
2023-03-22T16:26:40.265Z,38.39
2023-03-22T16:29:07.843Z,39.29
2023-03-22T16:31:34.794Z,40.08
2023-03-22T16:34:02.343Z,39.86
2023-03-22T16:36:29.415Z,40.06
2023-03-22T16:38:56.371Z,40.84
2023-03-22T16:41:25.464Z,41.22
2023-03-22T16:43:54.002Z,41.40
2023-03-22T16:46:21.176Z,41.99
2023-03-22T16:48:48.148Z,42.04
2023-03-22T16:51:30.913Z,42.27
2023-03-22T16:53:59.094Z,42.73
2023-03-22T16:56:30.772Z,43.49
2023-03-22T16:58:57.908Z,43.61
2023-03-22T17:01:26.144Z,43.95
2023-03-22T17:03:53.204Z,44.09
2023-03-22T17:06:26.600Z,44.37
2023-03-22T17:08:53.411Z,44.38
2023-03-22T17:11:26.168Z,44.69
2023-03-22T17:13:55.066Z,44.86
2023-03-22T17:16:22.004Z,44.97
2023-03-22T17:18:49.636Z,45.81
2023-03-22T17:21:21.800Z,45.92
2023-03-22T17:23:49.833Z,45.75
2023-03-22T17:26:20.382Z,45.93
2023-03-22T17:28:47.192Z,46.23
2023-03-22T17:31:16.153Z,46.50
2023-03-22T17:33:43.101Z,47.38
2023-03-22T17:36:13.304Z,47.42
2023-03-22T17:38:45.986Z,48.21
2023-03-22T17:41:27.807Z,48.64
2023-03-22T17:43:54.697Z,48.46
2023-03-22T17:48:51.378Z,49.23
2023-03-22T17:51:18.200Z,49.19
2023-03-22T17:54:33.859Z,49.75
2023-03-22T17:57:03.446Z,50.00
2023-03-22T17:59:18.358Z,50.06
2023-03-22T18:01:45.428Z,50.31
2023-03-22T18:04:12.403Z,50.73
2023-03-22T18:06:39.397Z,50.66
2023-03-22T18:11:31.647Z,50.88
2023-03-22T18:14:13.749Z,50.91
2023-03-22T18:16:52.976Z,50.23
2023-03-22T18:19:18.343Z,50.35
2023-03-22T18:21:53.429Z,50.17
2023-03-22T18:24:20.628Z,50.77
2023-03-22T18:27:03.606Z,50.84
2023-03-22T18:29:31.696Z,50.92
2023-03-22T18:32:08.896Z,51.12
2023-03-22T18:34:33.986Z,51.19
2023-03-22T18:37:01.331Z,51.69
2023-03-22T18:42:16.501Z,51.81
2023-03-22T18:44:32.017Z,51.51
2023-03-22T18:46:59.107Z,52.20
2023-03-22T18:49:26.076Z,51.60
2023-03-22T18:52:36.108Z,51.57
2023-03-22T18:54:32.859Z,51.39
2023-03-22T18:57:00.878Z,51.81
2023-03-22T18:59:30.987Z,51.44
2023-03-22T19:02:09.826Z,51.67
2023-03-22T19:04:31.706Z,51.76
2023-03-22T19:07:01.126Z,52.16
2023-03-22T19:09:29.829Z,52.14
2023-03-22T19:11:58.312Z,52.38
2023-03-22T19:15:17.574Z,52.43
2023-03-22T19:17:12.519Z,52.59
2023-03-22T19:19:39.422Z,52.69
2023-03-22T19:22:07.279Z,52.64
2023-03-22T19:24:34.603Z,53.22
2023-03-22T19:27:11.446Z,52.84
2023-03-22T19:29:31.700Z,53.17
2023-03-22T19:31:59.946Z,53.14
2023-03-22T19:34:29.438Z,53.57
2023-03-22T19:36:58.166Z,53.36
2023-03-22T19:39:26.388Z,53.28
2023-03-22T19:42:04.121Z,53.61
2023-03-22T19:44:31.660Z,53.64
2023-03-22T19:49:26.112Z,54.11
2023-03-22T19:51:55.300Z,54.48
2023-03-22T19:54:33.190Z,54.78
2023-03-22T19:57:10.189Z,55.88
2023-03-22T20:04:33.369Z,56.90
2023-03-22T20:07:02.450Z,56.68
2023-03-22T20:09:29.635Z,57.27
2023-03-22T20:11:56.558Z,57.72
2023-03-22T20:14:23.715Z,57.81
2023-03-22T20:16:56.524Z,58.33
2023-03-22T20:19:32.964Z,58.67
2023-03-22T20:21:59.927Z,58.67
2023-03-22T20:24:27.052Z,59.50
2023-03-22T20:26:54.054Z,59.54
2023-03-22T20:29:22.261Z,59.81
2023-03-22T20:31:52.211Z,60.19
2023-03-22T20:34:21.221Z,60.72
2023-03-22T20:36:48.221Z,60.51
2023-03-22T20:39:15.140Z,60.02
2023-03-22T20:41:42.121Z,60.04
2023-03-22T20:44:10.046Z,60.47
2023-03-22T20:46:36.948Z,60.05
2023-03-22T20:49:04.138Z,61.59
2023-03-22T20:51:33.165Z,60.73
2023-03-22T20:54:00.246Z,61.33
2023-03-22T20:56:27.658Z,62.09
2023-03-22T20:58:55.224Z,61.36
2023-03-22T21:01:22.089Z,61.41
2023-03-22T21:03:49.179Z,61.94
2023-03-22T21:06:16.756Z,61.31
2023-03-22T21:08:43.572Z,60.80
2023-03-22T21:11:12.675Z,60.47
2023-03-22T21:13:40.545Z,60.79
2023-03-22T21:16:17.158Z,60.98
2023-03-22T21:18:44.745Z,61.07
2023-03-22T21:21:12.195Z,60.28
2023-03-22T21:23:39.794Z,60.28
2023-03-22T21:26:07.528Z,60.27
2023-03-22T21:28:34.866Z,60.56
2023-03-22T21:33:31.751Z,61.25
2023-03-22T21:36:00.194Z,61.38
2023-03-22T21:38:27.581Z,61.15
2023-03-22T21:40:58.500Z,61.23
2023-03-22T21:43:26.433Z,61.44
2023-03-22T21:45:57.885Z,61.46
2023-03-22T21:48:26.760Z,60.93
2023-03-22T21:50:54.668Z,61.28
2023-03-22T21:53:23.719Z,61.55
2023-03-22T21:55:53.661Z,61.44
2023-03-22T21:58:24.563Z,61.81
2023-03-22T22:00:53.454Z,61.75
2023-03-22T22:03:20.880Z,62.46
2023-03-22T22:05:52.633Z,62.16
2023-03-22T22:08:21.893Z,61.22
2023-03-22T22:11:00.867Z,61.44
2023-03-22T22:13:29.417Z,62.38
2023-03-22T22:15:58.231Z,62.75
2023-03-22T22:18:25.738Z,62.38
2023-03-22T22:21:03.023Z,62.18
2023-03-22T22:23:32.490Z,61.88
2023-03-22T22:26:00.839Z,61.96
2023-03-22T22:28:28.311Z,61.66
2023-03-22T22:30:55.256Z,61.94
2023-03-22T22:33:22.634Z,61.91
2023-03-22T22:35:50.116Z,62.50
2023-03-22T22:38:17.285Z,61.96
2023-03-22T22:40:45.659Z,62.08
2023-03-22T22:43:13.281Z,62.20
2023-03-22T22:45:40.412Z,61.48
2023-03-22T22:48:07.592Z,61.84
2023-03-22T22:50:34.497Z,61.49
2023-03-22T22:53:01.338Z,61.44
2023-03-22T22:55:28.704Z,61.74
2023-03-22T22:57:55.696Z,61.88
2023-03-22T23:00:22.739Z,62.09
2023-03-22T23:02:49.660Z,62.04
2023-03-22T23:05:16.636Z,61.43
2023-03-22T23:07:43.392Z,61.65
2023-03-22T23:10:10.422Z,61.49
2023-03-22T23:12:37.596Z,62.25
2023-03-22T23:17:31.719Z,62.46
2023-03-22T23:20:02.238Z,60.40
2023-03-22T23:22:33.341Z,59.10
2023-03-22T23:25:01.159Z,58.81
2023-03-22T23:27:32.813Z,59.39
2023-03-22T23:30:01.029Z,60.40
2023-03-22T23:32:29.165Z,60.10
2023-03-22T23:34:58.816Z,61.82
2023-03-22T23:37:30.968Z,62.67
2023-03-22T23:39:59.369Z,62.57
2023-03-22T23:42:27.274Z,62.20
2023-03-22T23:44:54.286Z,62.05
2023-03-22T23:47:22.247Z,61.25
2023-03-22T23:49:49.139Z,60.72
2023-03-22T23:52:16.681Z,61.25
2023-03-22T23:54:43.574Z,60.57
2023-03-22T23:57:10.361Z,59.63
2023-03-22T23:59:37.731Z,59.30
